Time;durP1;ratioP1;P1;durP2;ratioP2;P2;SDS_P1;SDS_P2;PMS_P1;PMS_P2;Temp;Humidity;BMP_temperature;BMP_pressure;BME280_temperature;BME280_humidity;BME280_pressure;Samples;Min_cycle;Max_cycle;Signal;HPM_P1;HPM_P2
2021/10/09 00:00:26;;;;;;;;;;;;;;;-144.99;100.00;52280.97;5020581;28;19958;-59
2021/10/09 00:02:53;;;;;;;;;;;;;;;-144.99;100.00;52329.88;5021336;28;19968;-64
2021/10/09 00:05:21;;;;;;;;;;;;;;;-144.99;100.00;52289.13;5016518;28;20454;-63
2021/10/09 00:07:47;;;;;;;;;;;;;;;-144.99;100.00;52327.84;5021974;28;20005;-62
2021/10/09 00:10:23;;;;;;;;;;;;;;;-144.99;100.00;52272.81;5015979;28;20139;-62
2021/10/09 00:12:50;;;;;;;;;;;;;;;-144.99;100.00;52338.03;5020272;28;20075;-60
2021/10/09 00:15:16;;;;;;;;;;;;;;;-144.99;100.00;52297.25;5028825;28;19980;-62
2021/10/09 00:17:42;;;;;;;;;;;;;;;-144.99;100.00;52276.88;5028117;28;20350;-63
2021/10/09 00:20:09;;;;;;;;;;;;;;;-144.99;100.00;52305.41;5009987;28;19981;-62
2021/10/09 00:22:37;;;;;;;;;;;;;;;-144.99;100.00;52338.03;5010066;28;20004;-63
2021/10/09 00:25:04;;;;;;;;;;;;;;;-144.99;100.00;52283.00;5012847;28;20411;-62
2021/10/09 00:27:30;;;;;;;;;;;;;;;-144.99;100.00;52325.81;5021218;28;20075;-65
2021/10/09 00:29:57;;;;;;;;;;;;;;;-144.99;100.00;52315.59;5011717;28;19978;-63
2021/10/09 00:32:23;;;;;;;;;;;;;;;-144.99;100.00;52289.13;5010714;28;19967;-62
2021/10/09 00:34:49;;;;;;;;;;;;;;;-144.99;100.00;52317.66;5014407;28;19954;-64
2021/10/09 00:37:16;;;;;;;;;;;;;;;-144.99;100.00;52321.72;5017342;28;19974;-63
2021/10/09 00:39:43;;;;;;;;;;;;;;;-144.99;100.00;52309.50;5022697;28;19986;-61
2021/10/09 00:42:10;;;;;;;;;;;;;;;-144.99;100.00;52317.66;5010530;28;20005;-62
2021/10/09 00:44:37;;;;;;;;;;;;;;;-144.99;100.00;52346.19;5018371;28;19985;-62
2021/10/09 00:47:04;;;;;;;;;;;;;;;-144.99;100.00;52317.66;5017114;28;19997;-62
2021/10/09 00:49:32;;;;;;;;;;;;;;;-144.99;100.00;52301.34;5014531;28;19978;-64
2021/10/09 00:51:59;;;;;;;;;;;;;;;-144.99;100.00;52333.94;5010395;28;20331;-62
2021/10/09 00:54:26;;;;;;;;;;;;;;;-144.99;100.00;52317.66;5010530;28;19982;-62
2021/10/09 00:56:56;;;;;;;;;;;;;;;-144.99;100.00;52313.56;5013264;28;19991;-61
2021/10/09 00:59:25;;;;;;;;;;;;;;;-144.99;100.00;52303.38;5026935;28;19985;-62
2021/10/09 01:01:52;;;;;;;;;;;;;;;-144.99;100.00;52346.19;5008812;28;20020;-63
2021/10/09 01:04:19;;;;;;;;;;;;;;;-144.99;100.00;52342.09;5020560;28;19986;-63
2021/10/09 01:06:45;;;;;;;;;;;;;;;-144.99;100.00;52313.56;5019529;28;19993;-61
2021/10/09 01:09:12;;;;;;;;;;;;;;;-144.99;100.00;52329.88;5019076;28;19978;-63
2021/10/09 01:11:38;;;;;;;;;;;;;;;-144.99;100.00;52299.31;5013137;28;20000;-62
2021/10/09 01:14:06;;;;;;;;;;;;;;;-144.99;100.00;52342.09;5009929;28;20013;-61
2021/10/09 01:16:33;;;;;;;;;;;;;;;-144.99;100.00;52309.50;5019662;28;20437;-62
2021/10/09 01:18:59;;;;;;;;;;;;;;;-144.99;100.00;52325.81;5016895;28;19985;-62
2021/10/09 01:21:27;;;;;;;;;;;;;;;-144.99;100.00;52338.03;5016162;28;20494;-62
2021/10/09 01:23:53;;;;;;;;;;;;;;;-144.99;100.00;52325.81;5013751;28;20393;-62
2021/10/09 01:26:20;;;;;;;;;;;;;;;-144.99;100.00;52338.03;5016047;28;20000;-59
2021/10/09 01:28:48;;;;;;;;;;;;;;;-144.99;100.00;52338.03;5019376;28;19989;-60
2021/10/09 01:31:14;;;;;;;;;;;;;;;-144.99;100.00;52338.03;5009439;28;19998;-61
2021/10/09 01:33:41;;;;;;;;;;;;;;;-144.99;100.00;52303.38;5009087;28;20031;-62
2021/10/09 01:36:07;;;;;;;;;;;;;;;-144.99;100.00;52391.03;5016805;28;19973;-61
2021/10/09 01:38:37;;;;;;;;;;;;;;;-144.99;100.00;52342.09;5018443;28;20390;-61
2021/10/09 01:41:05;;;;;;;;;;;;;;;-144.99;100.00;52309.50;5008395;28;21477;-61
2021/10/09 01:43:31;;;;;;;;;;;;;;;-144.99;100.00;52346.19;5009424;28;19982;-62
2021/10/09 01:45:58;;;;;;;;;;;;;;;-144.99;100.00;52364.53;5011349;28;19988;-62
2021/10/09 01:48:29;;;;;;;;;;;;;;;-144.99;100.00;52317.66;5020152;28;20499;-62
2021/10/09 01:50:56;;;;;;;;;;;;;;;-144.99;100.00;52287.06;5007231;28;19982;-62
2021/10/09 01:53:22;;;;;;;;;;;;;;;-144.99;100.00;52333.94;5022819;28;20061;-61
2021/10/09 01:55:50;;;;;;;;;;;;;;;-144.99;100.00;52313.56;5016419;28;19984;-63
2021/10/09 01:58:16;;;;;;;;;;;;;;;-144.99;100.00;52344.16;5023464;28;19986;-61
2021/10/09 02:00:43;;;;;;;;;;;;;;;-144.99;100.00;52338.03;5012576;28;19982;-62
2021/10/09 02:03:09;;;;;;;;;;;;;;;-144.99;100.00;52285.03;5019220;28;19989;-61
2021/10/09 02:05:36;;;;;;;;;;;;;;;-144.99;100.00;52309.50;5020023;28;19985;-62
2021/10/09 02:08:04;;;;;;;;;;;;;;;-144.99;100.00;52333.94;5009159;28;20382;-61
2021/10/09 02:10:30;;;;;;;;;;;;;;;-144.99;100.00;52321.72;5009600;28;19974;-66
2021/10/09 02:13:02;;;;;;;;;;;;;;;-144.99;100.00;52327.84;5010969;28;20195;-60
2021/10/09 02:15:33;;;;;;;;;;;;;;;-144.99;100.00;52350.25;5012578;28;20069;-59
2021/10/09 02:26:16;;;;;;;;;;;;;;;-144.99;100.00;52354.34;5016770;28;20008;-60
2021/10/09 02:28:44;;;;;;;;;;;;;;;-144.99;100.00;52342.09;5017872;28;20545;-59
2021/10/09 02:31:10;;;;;;;;;;;;;;;-144.99;100.00;52354.34;5015727;28;19981;-60
2021/10/09 02:33:37;;;;;;;;;;;;;;;-144.99;100.00;52325.81;5016485;28;20096;-60
2021/10/09 02:36:03;;;;;;;;;;;;;;;-144.99;100.00;52370.63;5021074;28;20434;-60
2021/10/09 02:38:30;;;;;;;;;;;;;;;-144.99;100.00;52313.56;5009448;28;19989;-60
2021/10/09 02:40:56;;;;;;;;;;;;;;;-144.99;100.00;52321.72;5015506;28;19989;-60
2021/10/09 02:43:22;;;;;;;;;;;;;;;-144.99;100.00;52327.84;5019167;28;19978;-60
2021/10/09 02:45:50;;;;;;;;;;;;;;;-144.99;100.00;52325.81;5022651;28;19978;-63
2021/10/09 02:48:16;;;;;;;;;;;;;;;-144.99;100.00;52338.03;5015124;28;20005;-60
2021/10/09 02:50:43;;;;;;;;;;;;;;;-144.99;100.00;52329.88;5013001;28;20350;-61
2021/10/09 02:53:10;;;;;;;;;;;;;;;-144.99;100.00;52350.25;5013025;28;20436;-60
2021/10/09 02:55:36;;;;;;;;;;;;;;;-144.99;100.00;52350.25;5023627;28;19981;-61
2021/10/09 02:58:03;;;;;;;;;;;;;;;-144.99;100.00;52313.56;5019307;28;20072;-60
2021/10/09 03:00:29;;;;;;;;;;;;;;;-144.99;100.00;52358.41;5012347;28;19982;-60
2021/10/09 03:02:57;;;;;;;;;;;;;;;-144.99;100.00;52378.78;5028008;28;19994;-60
2021/10/09 03:05:24;;;;;;;;;;;;;;;-144.99;100.00;52325.81;5023944;28;20456;-61
2021/10/09 03:07:50;;;;;;;;;;;;;;;-144.99;100.00;52342.09;5013213;28;20385;-61
2021/10/09 03:10:16;;;;;;;;;;;;;;;-144.99;100.00;52309.50;5014587;28;20112;-60
2021/10/09 03:12:43;;;;;;;;;;;;;;;-144.99;100.00;52378.78;5026922;28;20489;-63
2021/10/09 03:15:10;;;;;;;;;;;;;;;-144.99;100.00;52317.66;5023410;28;20042;-61
2021/10/09 03:17:37;;;;;;;;;;;;;;;-144.99;100.00;52344.16;5012688;28;20087;-62
2021/10/09 03:20:05;;;;;;;;;;;;;;;-144.99;100.00;52338.03;5012051;28;19992;-61
2021/10/09 03:22:31;;;;;;;;;;;;;;;-144.99;100.00;52307.47;5025013;28;19993;-61
2021/10/09 03:24:58;;;;;;;;;;;;;;;-144.99;100.00;52327.84;5039761;22;19994;-69
2021/10/09 03:27:24;;;;;;;;;;;;;;;-144.99;100.00;52289.13;5021785;28;20032;-66
2021/10/09 03:29:51;;;;;;;;;;;;;;;-144.99;100.00;52313.56;5033565;28;19988;-66
2021/10/09 03:32:17;;;;;;;;;;;;;;;-144.99;100.00;52366.56;5021748;28;20088;-65
2021/10/09 03:34:44;;;;;;;;;;;;;;;-144.99;100.00;52376.75;5024545;28;20071;-65
2021/10/09 03:37:12;;;;;;;;;;;;;;;-144.99;100.00;52360.44;5014627;28;19982;-65
2021/10/09 03:39:41;;;;;;;;;;;;;;;-144.99;100.00;52356.38;5014272;28;19982;-65
2021/10/09 03:42:11;;;;;;;;;;;;;;;-144.99;100.00;52333.94;5014326;28;19994;-65
2021/10/09 03:44:42;;;;;;;;;;;;;;;-144.99;100.00;52378.78;5025337;28;20327;-68
2021/10/09 03:47:17;;;;;;;;;;;;;;;-144.99;100.00;52313.56;5024159;28;20357;-68
2021/10/09 03:49:48;;;;;;;;;;;;;;;-144.99;100.00;52376.75;5016008;28;19977;-67
2021/10/09 03:52:36;;;;;;;;;;;;;;;-144.99;100.00;52378.78;5011130;28;20377;-67
2021/10/09 03:55:04;;;;;;;;;;;;;;;-144.99;100.00;52317.66;5030109;28;19974;-68
2021/10/09 03:57:30;;;;;;;;;;;;;;;-144.99;100.00;52346.19;5026333;28;20385;-68
2021/10/09 03:59:56;;;;;;;;;;;;;;;-144.99;100.00;52378.78;5013958;28;20012;-68
2021/10/09 04:02:23;;;;;;;;;;;;;;;-144.99;100.00;52358.41;5014518;28;19989;-68
2021/10/09 04:04:49;;;;;;;;;;;;;;;-144.99;100.00;52360.44;5029514;28;19977;-68
2021/10/09 04:07:17;;;;;;;;;;;;;;;-144.99;100.00;52374.72;5023850;28;20108;-69
2021/10/09 04:09:43;;;;;;;;;;;;;;;-144.99;100.00;52325.81;5030246;28;19985;-68
2021/10/09 04:12:09;;;;;;;;;;;;;;;-144.99;100.00;52350.25;5024490;28;19990;-68
2021/10/09 04:14:36;;;;;;;;;;;;;;;-144.99;100.00;52331.91;5020178;28;19985;-68
2021/10/09 04:17:02;;;;;;;;;;;;;;;-144.99;100.00;52362.50;5014650;28;19982;-69
2021/10/09 04:19:29;;;;;;;;;;;;;;;-144.99;100.00;52350.25;5014363;28;19988;-68
2021/10/09 04:21:55;;;;;;;;;;;;;;;-144.99;100.00;52319.69;5013380;28;19994;-68
2021/10/09 04:24:23;;;;;;;;;;;;;;;-144.99;100.00;52350.25;5013866;28;20426;-68
2021/10/09 04:26:49;;;;;;;;;;;;;;;-144.99;100.00;52340.06;5026815;28;19970;-70
2021/10/09 04:29:15;;;;;;;;;;;;;;;-144.99;100.00;52362.50;5019767;28;19986;-70
2021/10/09 04:31:42;;;;;;;;;;;;;;;-144.99;100.00;52317.66;5012904;28;20462;-71
2021/10/09 04:34:08;;;;;;;;;;;;;;;-144.99;100.00;52325.81;5019711;28;19981;-67
2021/10/09 04:36:34;;;;;;;;;;;;;;;-144.99;100.00;52342.09;5015262;28;19978;-66
2021/10/09 04:39:01;;;;;;;;;;;;;;;-144.99;100.00;52366.56;5012520;28;20397;-66
2021/10/09 04:41:29;;;;;;;;;;;;;;;-144.99;100.00;52362.50;5012397;28;20006;-65
2021/10/09 04:43:56;;;;;;;;;;;;;;;-144.99;100.00;52344.16;5014722;28;20463;-65
2021/10/09 04:46:22;;;;;;;;;;;;;;;-144.99;100.00;52370.63;5017553;28;20061;-65
2021/10/09 04:48:48;;;;;;;;;;;;;;;-144.99;100.00;52350.25;5012452;28;20434;-64
2021/10/09 04:51:15;;;;;;;;;;;;;;;-144.99;100.00;52362.50;5012330;28;19998;-64
2021/10/09 04:53:41;;;;;;;;;;;;;;;-144.99;100.00;52366.56;5012164;28;20373;-66
2021/10/09 04:56:08;;;;;;;;;;;;;;;-144.99;100.00;52350.25;5017562;28;19977;-65
2021/10/09 04:58:35;;;;;;;;;;;;;;;-144.99;100.00;52346.19;5019634;28;20432;-70
2021/10/09 05:01:02;;;;;;;;;;;;;;;-144.99;100.00;52352.28;5012525;28;19965;-71
2021/10/09 05:03:29;;;;;;;;;;;;;;;-144.99;100.00;52333.94;5021203;28;19974;-71
2021/10/09 05:05:55;;;;;;;;;;;;;;;-144.99;100.00;52374.72;5012545;28;19978;-67
2021/10/09 05:08:21;;;;;;;;;;;;;;;-144.99;100.00;52366.56;5011882;28;19998;-66
2021/10/09 05:10:48;;;;;;;;;;;;;;;-144.99;100.00;52354.34;5015040;28;20468;-70
2021/10/09 05:13:14;;;;;;;;;;;;;;;-144.99;100.00;52325.81;5011385;28;19996;-70
2021/10/09 05:15:42;;;;;;;;;;;;;;;-144.99;100.00;52313.56;5014556;28;19997;-70
2021/10/09 05:18:09;;;;;;;;;;;;;;;-144.99;100.00;52350.25;5019352;28;19985;-69
2021/10/09 05:20:35;;;;;;;;;;;;;;;-144.99;100.00;52331.91;5012726;28;19989;-68
2021/10/09 05:23:01;;;;;;;;;;;;;;;-144.99;100.00;52378.78;5021666;28;20660;-67
2021/10/09 05:25:31;;;;;;;;;;;;;;;-144.99;100.00;52370.63;5019975;28;19977;-71
2021/10/09 05:28:01;;;;;;;;;;;;;;;-144.99;100.00;52342.09;5012857;28;20001;-70
2021/10/09 05:30:27;;;;;;;;;;;;;;;-144.99;100.00;52350.25;5013212;28;19985;-70
2021/10/09 05:33:11;;;;;;;;;;;;;;;-144.99;100.00;52391.03;5012618;28;20000;-70
2021/10/09 05:35:38;;;;;;;;;;;;;;;-144.99;100.00;52364.53;5013221;28;20061;-70
2021/10/09 05:38:04;;;;;;;;;;;;;;;-144.99;100.00;52338.03;5013068;28;19981;-70
2021/10/09 05:40:30;;;;;;;;;;;;;;;-144.99;100.00;52372.69;5012428;28;20489;-69
2021/10/09 05:42:57;;;;;;;;;;;;;;;-144.99;100.00;52395.09;5011482;28;19997;-70
2021/10/09 05:45:23;;;;;;;;;;;;;;;-144.99;100.00;52376.75;5020344;28;19980;-69
2021/10/09 05:47:51;;;;;;;;;;;;;;;-144.99;100.00;52372.69;5012226;28;19998;-70
2021/10/09 05:50:22;;;;;;;;;;;;;;;-144.99;100.00;52338.03;5011232;28;20415;-69
2021/10/09 05:52:53;;;;;;;;;;;;;;;-144.99;100.00;52411.41;5015651;28;19993;-69
2021/10/09 05:55:22;;;;;;;;;;;;;;;-144.99;100.00;52333.94;5012468;28;19984;-69
2021/10/09 05:57:57;;;;;;;;;;;;;;;-144.99;100.00;52380.84;5011158;28;20248;-69
2021/10/09 06:01:00;;;;;;;;;;;;;;;-144.99;100.00;52342.09;5011381;28;20000;-69
2021/10/09 06:31:34;;;;;;;;;;;;;;;-144.99;100.00;52327.84;5021280;28;20378;-72
2021/10/09 06:42:33;;;;;;;;;;;;;;;-144.99;100.00;52268.72;5010408;28;20108;-70
2021/10/09 06:45:12;;;;;;;;;;;;;;;-144.99;100.00;52354.34;5034494;28;19973;-69
2021/10/09 06:47:42;;;;;;;;;;;;;;;-144.99;99.95;52350.25;5035696;28;20000;-70
2021/10/09 06:50:20;;;;;;;;;;;;;;;-144.99;97.80;52338.03;5041604;28;20043;-70
2021/10/09 07:00:59;;;;;;;;;;;;;;;-144.99;94.73;52317.66;5024464;28;19989;-68
2021/10/09 07:03:26;;;;;;;;;;;;;;;-144.99;94.12;52317.66;5028203;28;19973;-69
2021/10/09 07:05:52;;;;;;;;;;;;;;;-144.99;93.89;52338.03;5015912;28;20489;-69
2021/10/09 07:08:19;;;;;;;;;;;;;;;-144.99;92.45;52338.03;5020394;28;20037;-69
2021/10/09 07:10:48;;;;;;;;;;;;;;;-144.99;92.00;52313.56;5020483;28;20158;-69
2021/10/09 07:13:15;;;;;;;;;;;;;;;-144.99;91.81;52333.94;5014115;28;20005;-69
2021/10/09 07:15:41;;;;;;;;;;;;;;;-144.99;91.76;52329.88;5014069;28;20017;-74
2021/10/09 07:18:10;;;;;;;;;;;;;;;-144.99;91.40;52329.88;5016640;28;20434;-71
2021/10/09 07:20:36;;;;;;;;;;;;;;;-144.99;90.83;52323.75;5015002;28;19978;-73
2021/10/09 07:23:03;;;;;;;;;;;;;;;-144.99;91.33;52338.03;5012361;28;19997;-71
2021/10/09 07:25:30;;;;;;;;;;;;;;;-144.99;90.63;52329.88;5020296;28;20443;-71
2021/10/09 07:27:58;;;;;;;;;;;;;;;-144.99;87.23;52319.69;5012947;28;19997;-69
2021/10/09 07:30:24;;;;;;;;;;;;;;;-144.99;86.41;52313.56;5013868;28;20342;-68
2021/10/09 07:32:51;;;;;;;;;;;;;;;-144.99;84.87;52331.91;5015058;28;20020;-68
2021/10/09 07:35:17;;;;;;;;;;;;;;;-144.99;83.94;52315.59;5023344;28;19973;-72
2021/10/09 07:37:43;;;;;;;;;;;;;;;-144.99;83.08;52305.41;5013889;28;20017;-72
2021/10/09 07:40:10;;;;;;;;;;;;;;;-144.99;82.32;52333.94;5013899;28;19988;-73
2021/10/09 07:42:37;;;;;;;;;;;;;;;-144.99;82.16;52368.59;5012628;28;20016;-71
2021/10/09 07:45:05;;;;;;;;;;;;;;;-144.99;81.94;52309.50;5022898;28;20357;-71
2021/10/09 07:47:32;;;;;;;;;;;;;;;-144.99;80.06;52338.03;5013691;28;19978;-73
2021/10/09 07:49:58;;;;;;;;;;;;;;;-144.99;79.81;52313.56;5013882;28;20002;-70
2021/10/09 07:52:25;;;;;;;;;;;;;;;-144.99;79.35;52313.56;5022263;28;19990;-70
2021/10/09 07:54:52;;;;;;;;;;;;;;;-144.99;78.11;52317.66;5024804;28;19978;-70
2021/10/09 07:57:19;;;;;;;;;;;;;;;-144.99;77.66;52331.91;5025800;28;19986;-71
2021/10/09 07:59:46;;;;;;;;;;;;;;;-144.99;78.70;52319.69;5019373;28;19982;-72
2021/10/09 08:02:13;;;;;;;;;;;;;;;-144.99;78.19;52336.00;5021617;28;19989;-71
2021/10/09 08:04:40;;;;;;;;;;;;;;;-144.99;77.38;52323.75;5020946;28;19973;-71
2021/10/09 08:07:07;;;;;;;;;;;;;;;-144.99;77.64;52307.47;5012748;28;20569;-72
2021/10/09 08:09:35;;;;;;;;;;;;;;;-144.99;76.82;52301.34;5020668;28;19990;-70
2021/10/09 08:12:01;;;;;;;;;;;;;;;-144.99;76.08;52329.88;5025860;28;20093;-70
2021/10/09 08:14:28;;;;;;;;;;;;;;;-144.99;75.55;52338.03;5012325;28;20447;-72
2021/10/09 08:16:54;;;;;;;;;;;;;;;-144.99;74.14;52295.22;5014149;28;19978;-70
2021/10/09 08:19:22;;;;;;;;;;;;;;;-144.99;74.25;52293.19;5023449;28;20446;-72
2021/10/09 08:21:49;;;;;;;;;;;;;;;-144.99;73.08;52321.72;5013816;28;20513;-70
2021/10/09 08:35:37;;;;;;;;;;;;;;;-144.99;67.84;52248.34;5021651;28;20497;-72
2021/10/09 08:40:47;;;;;;;;;;;;;;;-144.99;66.05;52276.88;5012528;28;20035;-71
2021/10/09 08:43:14;;;;;;;;;;;;;;;-144.99;65.73;52252.44;5010945;28;20009;-72
2021/10/09 08:45:40;;;;;;;;;;;;;;;-144.99;64.89;52276.88;5019654;28;20009;-70
2021/10/09 08:48:07;;;;;;;;;;;;;;;-144.99;64.26;52293.19;5020699;28;19973;-70
2021/10/09 08:50:35;;;;;;;;;;;;;;;-144.99;63.77;52248.34;5018388;28;20335;-69
2021/10/09 08:53:03;;;;;;;;;;;;;;;-144.99;62.29;52280.97;5010942;28;20004;-68
2021/10/09 08:55:30;;;;;;;;;;;;;;;-144.99;61.43;52219.81;5011288;28;20591;-71
2021/10/09 08:58:03;;;;;;;;;;;;;;;-144.99;59.67;52248.34;5012316;28;19984;-69
2021/10/09 09:00:38;;;;;;;;;;;;;;;-144.99;58.79;52207.59;5016182;28;19982;-68
2021/10/09 09:03:07;;;;;;;;;;;;;;;-144.99;57.13;52250.38;5013643;28;20465;-70
2021/10/09 09:05:42;;;;;;;;;;;;;;;-144.99;57.10;52234.09;5022921;28;20023;-70
2021/10/09 09:33:17;;;;;;;;;;;;;;;-144.99;50.76;52213.69;5019556;28;20317;-67
2021/10/09 09:35:49;;;;;;;;;;;;;;;-144.99;49.80;52211.66;5015712;28;20005;-66
2021/10/09 09:41:00;;;;;;;;;;;;;;;-144.99;47.80;52199.44;5020207;28;20043;-66
2021/10/09 09:43:37;;;;;;;;;;;;;;;-144.99;45.88;52223.88;5013127;28;19978;-65
2021/10/09 09:46:10;;;;;;;;;;;;;;;-144.99;44.79;52211.66;5009479;28;19985;-66
2021/10/09 09:48:37;;;;;;;;;;;;;;;-144.99;44.79;52207.59;5015793;28;19994;-68
2021/10/09 09:51:03;;;;;;;;;;;;;;;-144.99;44.81;52201.47;5004668;28;19973;-66
2021/10/09 09:53:31;;;;;;;;;;;;;;;-144.99;44.37;52187.19;5017357;28;20330;-66
2021/10/09 09:55:57;;;;;;;;;;;;;;;-144.99;42.87;52150.53;5015442;28;19982;-67
2021/10/09 09:58:25;;;;;;;;;;;;;;;-144.99;40.85;52154.59;5016287;28;19993;-66
2021/10/09 10:00:53;;;;;;;;;;;;;;;-144.99;40.36;52146.44;5016620;28;19978;-66
2021/10/09 10:03:24;;;;;;;;;;;;;;;-144.99;39.63;52148.47;5020518;28;19973;-66
2021/10/09 10:05:51;;;;;;;;;;;;;;;-144.99;39.13;52138.28;5010141;28;20029;-67
2021/10/09 10:08:20;;;;;;;;;;;;;;;-144.99;38.83;52164.78;5015060;28;19980;-67
2021/10/09 10:10:49;;;;;;;;;;;;;;;-144.99;39.02;52168.84;5019964;28;20357;-66
2021/10/09 10:13:16;;;;;;;;;;;;;;;-144.99;38.93;52168.84;5008547;28;20005;-69
2021/10/09 10:15:43;;;;;;;;;;;;;;;-144.99;38.50;52138.28;5010657;28;20386;-69
2021/10/09 10:18:09;;;;;;;;;;;;;;;-144.99;37.76;52117.91;4325292;28;10000834;-66
2021/10/09 10:20:46;;;;;;;;;;;;;;;-144.99;37.69;52166.81;4996601;28;20000;-61
2021/10/09 10:23:31;;;;;;;;;;;;;;;-144.99;37.35;52113.84;4999443;28;20630;-66
2021/10/09 10:26:19;;;;;;;;;;;;;;;-144.99;36.93;52058.81;5010514;28;20478;-66
2021/10/09 10:28:47;;;;;;;;;;;;;;;-144.99;36.18;52105.69;5001556;28;20001;-66
2021/10/09 10:31:13;;;;;;;;;;;;;;;-144.99;36.17;52056.78;4999135;28;20485;-66
2021/10/09 10:33:41;;;;;;;;;;;;;;;-144.99;34.92;52040.47;4991477;28;19989;-66
2021/10/09 10:36:09;;;;;;;;;;;;;;;-144.99;34.10;52048.63;5006693;28;19981;-66
2021/10/09 10:38:47;;;;;;;;;;;;;;;-144.99;34.93;52032.31;5005506;28;20236;-66
2021/10/09 10:41:17;;;;;;;;;;;;;;;-144.99;35.12;52020.09;5005562;28;20335;-66
2021/10/09 10:43:46;;;;;;;;;;;;;;;-144.99;33.84;51991.56;5004519;28;20302;-66
2021/10/09 10:46:33;;;;;;;;;;;;;;;-144.99;33.32;52034.34;5003533;28;19982;-66
2021/10/09 10:49:03;;;;;;;;;;;;;;;-144.99;32.65;52052.69;5005502;28;20613;-66
2021/10/09 10:51:41;;;;;;;;;;;;;;;-144.99;33.27;52048.63;5005575;28;19993;-65
2021/10/09 10:54:15;;;;;;;;;;;;;;;-144.99;32.61;52042.50;5007713;28;20003;-65
2021/10/09 10:57:03;;;;;;;;;;;;;;;-144.99;32.02;51995.63;5022071;28;19973;-67
2021/10/09 10:59:30;;;;;;;;;;;;;;;-144.99;31.56;52052.69;5006737;28;20040;-64
2021/10/09 11:02:17;;;;;;;;;;;;;;;-144.99;32.18;51991.56;5007493;28;19994;-66
2021/10/09 11:04:45;;;;;;;;;;;;;;;-144.99;32.74;52028.22;5010677;28;19997;-64
2021/10/09 11:07:12;;;;;;;;;;;;;;;-144.99;32.54;52024.16;5008725;28;20000;-63
2021/10/09 11:09:39;;;;;;;;;;;;;;;-144.99;31.67;52007.84;5007406;28;20367;-63
2021/10/09 11:12:18;;;;;;;;;;;;;;;-144.99;30.95;52003.78;5015939;28;19993;-63
2021/10/09 11:14:46;;;;;;;;;;;;;;;-144.99;32.02;51995.63;5009279;28;19981;-63
2021/10/09 11:17:13;;;;;;;;;;;;;;;-144.99;31.34;52007.84;5009510;28;19990;-62
2021/10/09 11:19:43;;;;;;;;;;;;;;;-144.99;31.18;51983.41;5004275;28;20207;-63
2021/10/09 11:22:11;;;;;;;;;;;;;;;-144.99;30.89;52011.94;5005988;28;20643;-63
2021/10/09 11:24:45;;;;;;;;;;;;;;;-144.99;31.39;52036.38;5005684;28;20021;-65
2021/10/09 11:27:11;;;;;;;;;;;;;;;-144.99;31.54;52028.22;5003828;28;20287;-63
2021/10/09 11:29:38;;;;;;;;;;;;;;;-144.99;31.17;52048.63;5004954;28;20001;-63
2021/10/09 11:32:06;;;;;;;;;;;;;;;-144.99;31.39;52036.38;5005439;28;19993;-65
2021/10/09 11:34:33;;;;;;;;;;;;;;;-144.99;31.38;52007.84;5005686;28;19978;-66
2021/10/09 11:36:59;;;;;;;;;;;;;;;-144.99;31.36;52077.16;5005530;28;19978;-63
2021/10/09 11:39:27;;;;;;;;;;;;;;;-144.99;31.34;52036.38;5005568;28;19996;-64
2021/10/09 11:42:04;;;;;;;;;;;;;;;-144.99;31.03;52044.53;5003461;28;19998;-64
2021/10/09 11:44:35;;;;;;;;;;;;;;;-144.99;31.41;52020.09;5003561;28;20459;-63
2021/10/09 11:47:21;;;;;;;;;;;;;;;-144.99;30.95;52007.84;5004879;28;19988;-63
2021/10/09 11:55:41;;;;;;;;;;;;;;;-144.99;30.83;52011.94;4991755;28;20204;-63
2021/10/09 11:58:07;;;;;;;;;;;;;;;-144.99;30.83;51983.41;5006130;28;19986;-64
2021/10/09 12:00:37;;;;;;;;;;;;;;;-144.99;29.58;51938.56;5003610;28;19974;-63
2021/10/09 12:03:28;;;;;;;;;;;;;;;-144.99;30.13;51971.16;5006231;28;20509;-63
2021/10/09 12:05:55;;;;;;;;;;;;;;;-144.99;29.81;51946.72;5007818;28;19982;-63
2021/10/09 12:08:25;;;;;;;;;;;;;;;-144.99;30.28;51952.81;5008208;28;20080;-63
2021/10/09 12:11:12;;;;;;;;;;;;;;;-144.99;29.94;51973.22;5007843;28;20095;-62
2021/10/09 12:13:45;;;;;;;;;;;;;;;-144.99;29.62;51977.28;5014594;28;20359;-62
2021/10/09 12:16:12;;;;;;;;;;;;;;;-144.99;29.52;52001.75;5017155;28;19986;-62
2021/10/09 12:18:45;;;;;;;;;;;;;;;-144.99;29.84;51993.59;5008053;28;19985;-62
2021/10/09 12:21:12;;;;;;;;;;;;;;;-144.99;29.71;51975.25;5006918;28;20064;-62
2021/10/09 12:23:38;;;;;;;;;;;;;;;-144.99;29.83;51954.88;5003749;28;19982;-63
2021/10/09 12:26:12;;;;;;;;;;;;;;;-144.99;29.23;51918.19;5000905;28;19978;-62
2021/10/09 12:28:53;;;;;;;;;;;;;;;-144.99;28.54;51920.22;5016186;28;19972;-62
2021/10/09 12:31:29;;;;;;;;;;;;;;;-144.99;28.88;51928.38;5013658;28;20013;-63
2021/10/09 12:33:55;;;;;;;;;;;;;;;-144.99;28.92;51983.41;5009151;28;19991;-63
2021/10/09 12:36:31;;;;;;;;;;;;;;;-144.99;30.09;51977.28;5018123;28;20014;-62
2021/10/09 12:38:57;;;;;;;;;;;;;;;-144.99;30.11;52018.03;5007632;28;19985;-60
2021/10/09 12:41:25;;;;;;;;;;;;;;;-144.99;30.18;51979.31;5006414;28;19997;-60
2021/10/09 12:43:53;;;;;;;;;;;;;;;-144.99;29.76;51958.94;5005835;28;20044;-60
2021/10/09 12:46:20;;;;;;;;;;;;;;;-144.99;29.61;51963.03;5000607;28;20026;-60
2021/10/09 12:48:46;;;;;;;;;;;;;;;-144.99;29.68;52001.75;5008197;28;19981;-61
2021/10/09 12:51:13;;;;;;;;;;;;;;;-144.99;29.32;51987.47;5006795;28;20021;-60
2021/10/09 12:53:39;;;;;;;;;;;;;;;-144.99;29.19;51963.03;5006375;28;19985;-60
2021/10/09 12:56:05;;;;;;;;;;;;;;;-144.99;29.14;51973.22;5010296;28;19977;-60
2021/10/09 12:58:33;;;;;;;;;;;;;;;-144.99;28.96;51987.47;5011049;28;19974;-60
2021/10/09 13:00:59;;;;;;;;;;;;;;;-144.99;28.57;51954.88;5008718;28;19985;-61
2021/10/09 13:03:26;;;;;;;;;;;;;;;-144.99;28.51;51963.03;5019097;28;19976;-61
2021/10/09 13:05:52;;;;;;;;;;;;;;;-144.99;28.77;51971.16;5014961;28;19978;-61
2021/10/09 13:08:18;;;;;;;;;;;;;;;-144.99;29.26;51958.94;5006901;28;19982;-60
2021/10/09 13:10:48;;;;;;;;;;;;;;;-144.99;29.63;51983.41;5009258;28;19993;-60
2021/10/09 13:13:14;;;;;;;;;;;;;;;-144.99;29.37;51987.47;5002636;28;19993;-62
2021/10/09 13:15:42;;;;;;;;;;;;;;;-144.99;28.86;51971.16;5001187;28;19974;-61
2021/10/09 13:18:08;;;;;;;;;;;;;;;-144.99;28.97;51995.63;5002907;28;20398;-61
2021/10/09 13:20:37;;;;;;;;;;;;;;;-144.99;29.21;51979.31;5002618;28;20451;-61
2021/10/09 13:23:04;;;;;;;;;;;;;;;-144.99;28.38;51967.09;5002157;28;20001;-60
2021/10/09 13:25:30;;;;;;;;;;;;;;;-144.99;28.34;52036.38;4998359;28;20039;-61
2021/10/09 13:27:57;;;;;;;;;;;;;;;-144.99;28.51;51999.69;5001338;28;19981;-61
2021/10/09 13:30:24;;;;;;;;;;;;;;;-144.99;28.51;51999.69;5003084;28;20410;-60
2021/10/09 13:32:51;;;;;;;;;;;;;;;-144.99;28.50;51979.31;5003305;28;20001;-60
2021/10/09 13:35:18;;;;;;;;;;;;;;;-144.99;27.92;51950.78;5000579;28;20004;-61
2021/10/09 13:37:48;;;;;;;;;;;;;;;-144.99;28.13;51910.03;5002279;28;20097;-60
2021/10/09 13:40:14;;;;;;;;;;;;;;;-144.99;27.81;51928.38;5002154;28;19985;-61
2021/10/09 13:42:40;;;;;;;;;;;;;;;-144.99;27.69;51910.03;5002479;28;19989;-61
2021/10/09 13:45:07;;;;;;;;;;;;;;;-144.99;27.09;51910.03;5003343;28;19982;-61
2021/10/09 13:47:34;;;;;;;;;;;;;;;-144.99;26.75;51865.19;5002877;28;19967;-61
2021/10/09 13:50:01;;;;;;;;;;;;;;;-144.99;27.84;51918.19;4999948;28;20003;-60
2021/10/09 13:52:28;;;;;;;;;;;;;;;-144.99;28.26;51963.03;4997677;28;20025;-60
2021/10/09 13:54:54;;;;;;;;;;;;;;;-144.99;28.48;51938.56;5000835;28;19981;-64
2021/10/09 13:57:20;;;;;;;;;;;;;;;-144.99;28.17;51942.63;4997904;28;20191;-65
2021/10/09 13:59:47;;;;;;;;;;;;;;;-144.99;27.92;51946.72;4999057;28;20421;-65
2021/10/09 14:02:13;;;;;;;;;;;;;;;-144.99;27.57;51905.97;4999643;28;20000;-66
2021/10/09 14:04:40;;;;;;;;;;;;;;;-144.99;27.13;51897.81;5001313;28;20024;-66
2021/10/09 14:07:07;;;;;;;;;;;;;;;-144.99;27.12;51893.72;5004942;28;20062;-67
2021/10/09 14:09:34;;;;;;;;;;;;;;;-144.99;27.53;51914.09;5003087;28;19979;-66